Impacts TAF Board
For situational awareness. Not to be used for flight planning purposes.
IDs:

KPDX - Portland Intl Arpt, OR, US

Issued at 1742 UTC 19 May 2019
Updated at 2029 UTC 19 May 2019
Potential Impact None Slight Moderate High
Time<<20/09Z 20/10Z 20/11Z 20/12Z 20/13Z 20/14Z 20/15Z 20/16Z 20/17Z 20/18Z 20/19Z 20/20Z 20/21Z>>
Type PRVL PRVL PRVL PRVL PRVL PRVL PRVL PRVL PRVL
VIS >6 >6 >6 >6 >6 >6 >6 >6 >6
CIG 40 40 40 20 20 20 20 20 --
Cover BKN BKN BKN BKN BKN BKN BKN BKN SCT
FltCat VFR VFR VFR MVFR MVFR MVFR MVFR MVFR VFR
WX -- -- -- -- -- -- -- -- --
WDir 270 270 270 VRB VRB VRB VRB VRB 180
WSpd 4 4 4 3 3 3 3 3 5
WGst -- -- -- -- -- -- -- -- --
Raw TAF
KPDX 191742Z 1918/2018 31007KT P6SM BKN050
  FM200500 27004KT P6SM BKN040
  FM201200 VRB03KT P6SM BKN020
  FM201700 18005KT P6SM SCT025


METAR Board
Radar Display
Forecast Discussion
For situational awareness. Not to be used for flight planning purposes.